Latest Weather Observations for Warragul (Nilma North)

IDV60801

Issued at 4:33 pm EST Saturday 22 July 2017 (issued every 30 minutes, with the page automatically refreshed every 10 minutes)

About weather observations | Map of weather stations | Latest weather observations for VIC | Other Formats
Station Details ID: 085313 Name: NILMA NORTH (WARRAGUL) Lat: -38.13 Lon: 145.99 Height: 134.11 m
Data from the previous 72 hours. | See also: Recent months for locations in Victoria
Date/Time
EST
Temp
°C
App
Temp
°C
Dew
Point
°C
Rel
Hum
%
Delta-T
°C
Wind Press
QNH
hPa
Press
MSL
hPa
Rain since
9am
mm
Dir  Spd
km/h
Gust
km/h
Spd
kts
Gust
kts
22/04:30pm 11.8 8.3 3.6 57 3.7 N 11 22 6 12 1013.0 1013.3 0.2
22/04:00pm 11.6 7.6 3.1 56 3.8 NNW 13 24 7 13 1013.6 1013.8 0.2
22/03:30pm 12.3 8.4 3.3 54 4.0 NNW 13 20 7 11 1013.7 1013.9 0.2
22/03:00pm 12.4 8.1 3.1 53 4.1 NNW 15 24 8 13 1013.9 1014.1 0.2
22/02:30pm 12.2 8.3 3.2 54 4.0 N 13 28 7 15 1014.2 1014.4 0.2
22/02:00pm 12.4 8.8 3.1 53 4.1 NNW 11 22 6 12 1014.9 1015.1 0.2
22/01:30pm 12.4 9.9 3.6 55 4.0 N 6 13 3 7 1015.6 1015.8 0.2
22/01:00pm 11.8 9.5 2.5 53 4.1 NNW 4 7 2 4 1016.4 1016.6 0.2
22/12:30pm 11.2 9.6 4.7 64 3.0 W 2 6 1 3 1017.0 1017.2 0.2
22/12:00pm 9.3 7.0 4.9 74 2.0 WSW 6 7 3 4 1018.2 1018.5 0.2
22/11:30am 8.3 7.3 5.4 82 1.3 CALM 0 0 0 0 1018.6 1018.9 0.2
22/11:00am 5.0 3.4 4.3 95 0.3 SSW 2 4 1 2 1018.8 1019.1 0.2
22/10:30am 3.4 1.2 3.4 100 0.0 SW 4 6 2 3 1018.9 1019.2 0.2
22/10:00am 2.3 0.7 2.3 100 0.0 CALM 0 0 0 0 1018.8 1019.1 0.2
22/09:30am -0.3 -2.7 -0.4 99 0.0 WSW 2 4 1 2 1019.4 1019.7 0.2
22/09:00am -0.9 -3.4 -1.0 99 0.0 ENE 2 2 1 1 1019.5 1019.8 0.0
22/08:30am -2.0 -4.7 -2.1 99 -0.1 NNE 2 4 1 2 1019.7 1020.0 0.0
22/08:00am -3.2 -6.0 -3.5 98 0.0 WSW 2 4 1 2 1019.5 1019.8 0.0
22/07:30am -3.8 -6.3 -4.1 98 -0.1 CALM 0 0 0 0 1019.5 1019.8 0.0
22/07:00am -3.8 -6.3 -4.1 98 -0.1 CALM 0 0 0 0 1019.4 1019.7 0.0
22/06:30am -3.6 -6.1 -3.9 98 -0.1 CALM 0 0 0 0 1019.2 1019.5 0.0
22/06:00am -3.5 -6.3 -3.6 99 -0.1 WSW 2 7 1 4 1019.2 1019.5 0.0
22/05:30am -3.5 -6.3 -3.6 99 -0.1 W 2 6 1 3 1019.0 1019.3 0.0
22/05:00am -3.1 -5.9 -3.2 99 -0.1 WNW 2 6 1 3 1019.0 1019.3 0.0
22/04:30am -2.8 -5.6 -2.9 99 -0.1 WSW 2 4 1 2 1019.1 1019.4 0.0
22/04:00am -2.9 -5.3 -3.0 99 -0.1 CALM 0 0 0 0 1019.2 1019.5 0.0
22/03:30am -2.5 -5.2 -2.6 99 -0.1 E 2 6 1 3 1019.5 1019.8 0.0
22/03:00am -1.7 -3.9 -1.8 99 0.0 CALM 0 6 0 3 1020.0 1020.3 0.0
22/02:30am -1.5 -4.1 -1.6 99 0.0 S 2 6 1 3 1020.2 1020.5 0.0
22/02:00am -1.7 -3.9 -1.8 99 0.0 CALM 0 0 0 0 1020.5 1020.8 0.0
22/01:30am -1.2 -3.4 -1.3 99 0.0 CALM 0 0 0 0 1020.8 1021.1 0.0
22/01:00am -1.1 -4.0 -1.2 99 0.0 W 4 6 2 3 1021.0 1021.3 0.0
22/12:30am -0.9 -3.8 -1.2 98 0.1 ENE 4 6 2 3 1021.4 1021.6 0.0
22/12:00am -0.3 -2.4 -0.6 98 0.1 CALM 0 0 0 0 1021.9 1022.1 0.0
 
Date/Time
EST
Temp
°C
App
Temp
°C
Dew
Point
°C
Rel
Hum
%
Delta-T
°C
Wind Press
QNH
hPa
Press
MSL
hPa
Rain since
9am
mm
Dir  Spd
km/h
Gust
km/h
Spd
kts
Gust
kts
21/11:30pm 0.8 -1.1 0.5 98 0.1 CALM 0 0 0 0 1021.9 1022.1 0.0
21/11:00pm 1.3 -0.5 1.0 98 0.1 CALM 0 4 0 2 1022.3 1022.5 0.0
21/10:30pm 1.2 -0.7 0.6 96 0.2 CALM 0 0 0 0 1022.0 1022.2 0.0
21/10:00pm 0.7 -1.3 0.0 95 0.3 CALM 0 4 0 2 1022.1 1022.3 0.0
21/09:30pm 2.4 0.3 1.8 96 0.2 N 2 6 1 3 1022.1 1022.3 0.0
21/09:00pm 2.4 0.6 1.5 94 0.3 CALM 0 4 0 2 1022.1 1022.3 0.0
21/08:30pm 3.6 1.7 2.7 94 0.4 WSW 2 4 1 2 1022.0 1022.2 0.0
21/08:00pm 4.0 2.5 2.8 92 0.5 CALM 0 0 0 0 1021.9 1022.1 0.0
21/07:30pm 4.0 1.7 2.7 91 0.5 ENE 4 6 2 3 1021.8 1022.0 0.0
21/07:00pm 5.0 3.5 3.0 87 0.8 CALM 0 0 0 0 1021.9 1022.1 0.0
21/06:30pm 6.3 4.2 4.0 85 1.0 NE 4 6 2 3 1022.0 1022.2 0.0
21/06:00pm 6.5 5.1 3.7 82 1.2 CALM 0 0 0 0 1021.9 1022.1 0.0
21/05:30pm 8.1 6.8 4.3 77 1.7 CALM 0 0 0 0 1021.8 1022.0 0.0
21/05:00pm 9.4 8.3 5.0 74 2.0 CALM 0 0 0 0 1021.8 1022.0 0.0
21/04:30pm 11.4 10.0 5.5 67 2.7 WNW 2 6 1 3 1021.8 1022.0 0.0
21/04:00pm 11.2 10.1 5.1 66 2.8 CALM 0 4 0 2 1021.7 1021.9 0.0
21/03:30pm 10.7 8.9 5.5 70 2.4 E 4 6 2 3 1021.7 1021.9 0.0
21/03:00pm 10.5 9.3 6.5 76 1.9 E 2 6 1 3 1022.0 1022.2 0.0
21/02:30pm 10.1 9.4 6.8 80 1.6 CALM 0 4 0 2 1022.1 1022.3 0.0
21/02:00pm 8.8 6.9 6.8 87 0.9 ESE 6 9 3 5 1021.9 1022.1 0.0
21/01:30pm 7.8 5.8 6.9 94 0.4 ESE 7 9 4 5 1022.2 1022.4 0.0
21/01:00pm 6.8 4.8 6.2 96 0.3 ESE 6 7 3 4 1023.1 1023.3 0.0
21/12:30pm 6.3 4.7 6.3 100 0.0 SE 4 7 2 4 1023.7 1023.9 0.0
21/12:00pm 6.3 5.1 6.3 100 0.0 NNW 2 6 1 3 1024.3 1024.6 0.0
21/11:30am 6.1 4.4 6.1 100 0.0 W 4 9 2 5 1024.8 1025.1 0.0
21/11:00am 5.9 3.8 5.9 100 0.0 WNW 6 7 3 4 1024.9 1025.2 0.0
21/10:30am 5.5 3.3 5.5 100 0.0 W 6 9 3 5 1024.9 1025.2 0.0
21/10:00am 3.9 2.2 3.9 100 0.0 WSW 2 4 1 2 1024.9 1025.2 0.0
21/09:30am 2.1 -0.3 2.1 100 0.0 WNW 4 6 2 3 1024.7 1025.0 0.0
21/09:00am 0.2 -2.9 0.2 100 0.0 WNW 6 6 3 3 1024.4 1024.7 4.2
21/08:30am -0.5 -2.6 -0.5 100 0.0 CALM 0 0 0 0 1024.0 1024.3 4.2
21/08:00am -0.8 -2.9 -0.8 100 0.0 CALM 0 0 0 0 1023.6 1023.8 4.2
21/07:30am -1.5 -3.7 -1.6 99 0.0 CALM 0 0 0 0 1023.3 1023.5 4.2
21/07:00am -0.4 -2.4 -0.4 100 0.0 CALM 0 2 0 1 1023.0 1023.2 4.2
21/06:30am -0.9 -3.8 -1.0 99 0.0 E 4 6 2 3 1022.8 1023.0 4.2
21/06:00am 0.3 -1.7 0.2 99 0.0 CALM 0 0 0 0 1022.3 1022.5 4.2
21/05:30am -0.2 -2.2 -0.3 99 0.0 CALM 0 0 0 0 1022.2 1022.4 4.2
21/05:00am 0.1 -1.9 0.0 99 0.0 CALM 0 0 0 0 1022.1 1022.3 4.2
21/04:30am 0.8 -1.5 0.7 99 0.0 N 2 2 1 1 1021.9 1022.1 4.2
21/04:00am 0.9 -1.3 0.8 99 0.0 ESE 2 2 1 1 1021.9 1022.1 4.2
21/03:30am 1.9 0.2 1.8 99 0.0 CALM 0 0 0 0 1021.8 1022.0 4.2
21/03:00am 2.2 0.5 1.9 98 0.1 CALM 0 0 0 0 1021.7 1021.9 4.2
21/02:30am 3.0 1.4 2.7 98 0.1 CALM 0 0 0 0 1021.5 1021.7 4.2
21/02:00am 2.4 0.3 2.0 97 0.2 ESE 2 4 1 2 1021.7 1021.9 4.2
21/01:30am 3.7 2.3 3.3 97 0.2 CALM 0 0 0 0 1021.8 1022.0 4.2
21/01:00am 4.1 2.3 3.7 97 0.2 W 2 2 1 1 1021.9 1022.1 4.2
21/12:30am 4.1 2.0 3.7 97 0.2 ESE 4 7 2 4 1022.3 1022.5 4.2
21/12:00am 4.2 2.0 3.6 96 0.2 SE 4 6 2 3 1022.3 1022.5 4.2
 
Date/Time
EST
Temp
°C
App
Temp
°C
Dew
Point
°C
Rel
Hum
%
Delta-T
°C
Wind Press
QNH
hPa
Press
MSL
hPa
Rain since
9am
mm
Dir  Spd
km/h
Gust
km/h
Spd
kts
Gust
kts
20/11:30pm 4.7 3.4 4.0 95 0.3 CALM 0 4 0 2 1022.0 1022.2 4.2
20/11:00pm 4.8 3.4 3.8 93 0.4 CALM 0 0 0 0 1021.9 1022.1 4.2
20/10:30pm 5.7 4.5 4.7 93 0.4 CALM 0 2 0 1 1021.8 1022.0 4.2
20/10:00pm 5.7 4.1 4.7 93 0.4 WNW 2 6 1 3 1021.6 1021.8 4.2
20/09:30pm 5.7 3.7 4.5 92 0.5 WNW 4 6 2 3 1021.4 1021.6 4.2
20/09:00pm 5.7 3.7 4.2 90 0.6 W 4 7 2 4 1020.8 1021.1 4.2
20/08:30pm 6.0 3.5 5.0 93 0.4 NW 7 11 4 6 1020.6 1020.9 4.2
20/08:00pm 5.3 3.2 4.1 92 0.5 WNW 4 6 2 3 1020.3 1020.6 4.2
20/07:30pm 5.5 3.5 4.2 91 0.6 NW 4 6 2 3 1020.0 1020.3 4.2
20/07:00pm 6.0 3.5 4.5 90 0.6 WNW 7 9 4 5 1019.8 1020.1 4.2
20/06:30pm 6.5 4.0 4.8 89 0.7 WNW 7 11 4 6 1019.5 1019.8 4.2
20/06:00pm 6.8 3.6 5.0 88 0.8 WNW 11 15 6 8 1019.1 1019.4 4.2
20/05:30pm 6.9 4.0 4.9 87 0.9 W 9 13 5 7 1019.0 1019.3 4.2
20/05:00pm 7.4 4.6 5.0 85 1.1 WNW 9 13 5 7 1018.6 1018.9 4.0
20/04:30pm 8.0 3.9 4.2 77 1.7 W 15 26 8 14 1018.5 1018.8 4.0
20/04:00pm 8.7 4.3 4.5 75 1.9 W 17 24 9 13 1018.0 1018.3 4.0
20/03:30pm 9.2 4.1 3.0 65 2.7 WSW 19 33 10 18 1017.8 1018.1 4.0
20/03:00pm 9.2 5.6 5.2 76 1.8 W 13 20 7 11 1017.4 1017.6 4.0
20/02:30pm 9.2 4.4 4.4 72 2.1 W 19 30 10 16 1017.0 1017.2 4.0
20/02:00pm 8.4 3.0 4.4 76 1.8 W 22 43 12 23 1016.6 1016.8 4.0
20/01:30pm 8.4 4.2 3.7 72 2.0 W 15 28 8 15 1016.4 1016.6 4.0
20/01:00pm 7.8 2.8 4.6 80 1.4 WSW 20 39 11 21 1016.5 1016.7 3.8
20/12:30pm 8.0 3.0 3.7 74 1.9 WSW 19 35 10 19 1016.5 1016.7 3.8
20/12:00pm 7.9 2.4 3.8 75 1.8 SW 22 52 12 28 1016.8 1017.0 3.8
20/11:59am 8.1 2.6 4.1 76 1.8 WSW 22 52 12 28 1016.9 1017.1 3.8
20/11:30am 8.2 2.8 4.6 78 1.6 W 22 33 12 18 1016.6 1016.8 3.0
20/11:00am 9.0 4.3 5.0 76 1.8 W 19 35 10 19 1016.1 1016.3 2.8
20/10:30am 8.4 4.5 7.0 91 0.7 W 17 28 9 15 1016.1 1016.3 2.8
20/10:00am 7.2 2.6 6.3 94 0.4 W 20 32 11 17 1016.1 1016.3 2.6
20/09:30am 7.5 3.4 6.4 93 0.5 W 17 30 9 16 1015.8 1016.0 0.6
20/09:00am 7.5 2.8 6.0 90 0.7 W 20 33 11 18 1015.3 1015.5 13.0
20/08:30am 7.3 0.4 6.4 94 0.4 W 32 44 17 24 1014.9 1015.1 12.6
20/08:00am 7.2 1.9 6.6 96 0.3 W 24 46 13 25 1014.9 1015.1 12.2
20/07:30am 7.0 2.0 6.4 96 0.3 WNW 22 33 12 18 1014.7 1014.9 12.0
20/07:00am 7.1 0.6 6.5 96 0.3 W 30 43 16 23 1014.6 1014.8 11.0
20/06:30am 7.2 1.1 6.6 96 0.3 W 28 39 15 21 1014.5 1014.7 10.8
20/06:00am 7.0 1.2 6.4 96 0.3 W 26 43 14 23 1014.6 1014.8 10.8
20/05:30am 7.1 1.2 5.9 92 0.5 WNW 26 43 14 23 1014.0 1014.2 9.6
20/05:00am 7.3 1.8 5.8 90 0.7 WNW 24 39 13 21 1013.9 1014.1 7.6
20/04:30am 7.2 1.6 5.5 89 0.8 WNW 24 37 13 20 1013.9 1014.1 6.6
20/04:00am 7.2 1.6 5.2 87 0.9 WNW 24 35 13 19 1014.0 1014.2 6.2
20/03:30am 7.5 2.2 5.0 84 1.1 WNW 22 37 12 20 1014.0 1014.2 6.0
20/03:00am 7.5 2.1 4.6 82 1.3 WNW 22 35 12 19 1014.1 1014.3 6.0
20/02:30am 7.7 2.0 4.7 81 1.3 WNW 24 39 13 21 1014.3 1014.5 6.0
20/02:00am 7.6 2.2 4.7 82 1.3 WNW 22 32 12 17 1014.5 1014.7 6.0
20/01:30am 7.3 2.3 4.6 83 1.2 WNW 20 32 11 17 1014.5 1014.7 6.0
20/01:00am 7.3 2.5 4.4 82 1.3 WNW 19 30 10 16 1014.7 1014.9 6.0
20/12:30am 7.3 2.3 4.8 84 1.1 WNW 20 32 11 17 1014.9 1015.1 6.0
20/12:00am 7.6 2.3 5.2 85 1.1 WNW 22 35 12 19 1015.1 1015.3 6.0
 
Date/Time
EST
Temp
°C
App
Temp
°C
Dew
Point
°C
Rel
Hum
%
Delta-T
°C
Wind Press
QNH
hPa
Press
MSL
hPa
Rain since
9am
mm
Dir  Spd
km/h
Gust
km/h
Spd
kts
Gust
kts
19/11:30pm 7.3 2.6 5.3 87 0.9 WNW 19 24 10 13 1015.9 1016.1 6.0
19/11:00pm 7.5 3.1 5.0 84 1.1 WNW 17 28 9 15 1016.0 1016.2 6.0
19/10:30pm 7.9 2.9 4.8 81 1.4 WNW 20 30 11 16 1016.8 1017.0 6.0
19/10:00pm 7.4 3.5 5.2 86 1.0 W 15 20 8 11 1016.7 1016.9 6.0
19/09:30pm 7.7 3.8 5.2 84 1.1 WNW 15 20 8 11 1016.9 1017.1 5.8
19/09:00pm 7.9 3.7 5.5 85 1.1 WNW 17 22 9 12 1016.8 1017.0 5.8
19/08:30pm 8.1 4.2 5.4 83 1.2 WNW 15 20 8 11 1016.8 1017.0 5.8
19/08:00pm 7.8 3.8 5.1 83 1.2 WNW 15 22 8 12 1016.6 1016.8 5.8
19/07:30pm 8.2 4.2 5.1 81 1.4 WNW 15 20 8 11 1016.3 1016.5 5.8
19/07:00pm 8.7 4.9 5.6 81 1.4 W 15 20 8 11 1016.1 1016.3 5.8
19/06:30pm 8.5 4.8 6.1 85 1.1 WNW 15 22 8 12 1015.8 1016.0 5.8
19/06:00pm 8.6 4.6 6.7 88 0.9 WNW 17 20 9 11 1015.9 1016.1 5.8
19/05:30pm 8.3 4.3 6.8 90 0.7 WSW 17 30 9 16 1015.7 1015.9 5.6
19/05:00pm 9.8 5.1 6.0 77 1.8 WSW 20 37 11 20 1015.2 1015.4 5.6

Other Formats:

Comma delimited format used in spreadsheet applications
http://www.bom.gov.au/fwo/IDV60801/IDV60801.99806.axf

JavaScript Object Notation format (JSON) in row-major order
http://www.bom.gov.au/fwo/IDV60801/IDV60801.99806.json